全部
Stand Fast Airport (Langtry, TX) 2TE8 天气
There is no TAF data available at 2TE8 or any nearby airports.
There is no METAR data available at 2TE8. Showing METAR data for 6R6 (30 mi W).
6R6近期METAR历史数据(2TE8无数据)
| Date | Time (CDT) | Flight Rules | Wind Dir. | Speed | Type | Height AGL (ft) | Visibility | Temp (°C) | Temp (°F) | Dew Point (°C) | Dew Point (°F) | Rel. Humid. | Pressure | Density Altitude | Remarks |
|---|---|---|---|---|---|---|---|---|---|---|---|---|---|---|---|
| 04-五月 | 21:51 | n/a | 70° | 6 kt | Missing | 26° | 78° | 15° | 59° | 52% | 29.81 in Hg | 4,228 ft | |||
| 04-五月 | 20:51 | n/a | 100° | 7 kt | Missing | 27° | 80° | 14° | 57° | 45% | 29.79 in Hg | 4,368 ft | |||
| 04-五月 | 19:51 | n/a | 110° | 10 kt | Missing | 29° | 84° | 14° | 57° | 40% | 29.78 in Hg | 4,618 ft | |||
| 04-五月 | 18:51 | n/a | 110° | 12 kt | Missing | 31° | 87° | 13° | 55° | 35% | 29.79 in Hg | 4,848 ft | |||
| 04-五月 | 17:51 | n/a | 110° | 8 kt | Missing | 31° | 87° | 13° | 55° | 34% | 29.80 in Hg | 4,838 ft | |||
| 04-五月 | 16:51 | n/a | 120° | 9 kt | Missing | 31° | 87° | 13° | 55° | 35% | 29.82 in Hg | 4,818 ft | |||
| 04-五月 | 15:51 | n/a | Variable | 6 kt | Missing | 29° | 84° | 13° | 55° | 36% | 29.86 in Hg | 4,538 ft | |||
| 04-五月 | 14:51 | n/a | 160° | 9 kt | Missing | 28° | 82° | 13° | 55° | 40% | 29.88 in Hg | 4,398 ft | |||
| 04-五月 | 13:51 | n/a | Variable | 6 kt | Missing | 27° | 80° | 13° | 55° | 41% | 29.90 in Hg | 4,258 ft | |||
| 04-五月 | 12:51 | n/a | Variable | 3 kt | Missing | 25° | 77° | 13° | 55° | 47% | 29.92 in Hg | 3,998 ft | |||
| 04-五月 | 11:51 | n/a | 110° | 6 kt | Missing | 23° | 73° | 13° | 55° | 53% | 29.95 in Hg | 3,728 ft | |||
| 04-五月 | 10:51 | n/a | Calm | Missing | 21° | 69° | 13° | 55° | 61% | 29.95 in Hg | 3,488 ft | ||||
| 04-五月 | 09:51 | n/a | 80° | 7 kt | Missing | 19° | 66° | 13° | 55° | 66% | 29.95 in Hg | 3,248 ft | |||
| 04-五月 | 08:51 | n/a | 90° | 7 kt | Missing | 18° | 64° | 13° | 55° | 70% | 29.94 in Hg | 3,138 ft | |||
| 04-五月 | 07:51 | n/a | 60° | 5 kt | Missing | 16° | 60° | 12° | 53° | 75% | 29.93 in Hg | 2,908 ft | |||
| 04-五月 | 06:51 | n/a | 50° | 6 kt | Missing | 16° | 60° | 11° | 51° | 72% | 29.91 in Hg | 2,928 ft | |||
| 04-五月 | 05:51 | n/a | 20° | 6 kt | Missing | 17° | 62° | 11° | 51° | 67% | 29.91 in Hg | 3,048 ft | |||
| 04-五月 | 04:51 | n/a | 30° | 6 kt | Missing | 17° | 62° | 11° | 51° | 65% | 29.92 in Hg | 3,038 ft | |||
| 04-五月 | 03:51 | n/a | 10° | 6 kt | Missing | 18° | 64° | 11° | 51° | 63% | 29.92 in Hg | 3,158 ft | |||
| 04-五月 | 02:51 | n/a | 360° | 6 kt | Missing | 18° | 64° | 11° | 51° | 61% | 29.93 in Hg | 3,148 ft | |||
| 04-五月 | 01:51 | n/a | 30° | 6 kt | Missing | 19° | 66° | 11° | 51° | 59% | 29.95 in Hg | 3,248 ft | |||
| 04-五月 | 00:51 | n/a | 90° | 4 kt | Missing | 20° | 68° | 11° | 51° | 55% | 29.98 in Hg | 3,338 ft | |||
| 03-五月 | 23:51 | n/a | 90° | 6 kt | Missing | 21° | 69° | 10° | 50° | 49% | 30.00 in Hg | 3,438 ft | |||
| 03-五月 | 22:51 | n/a | 100° | 9 kt | Missing | 22° | 71° | 10° | 50° | 47% | 30.00 in Hg | 3,558 ft |
登录
| 您的浏览器不支持. 升级您的浏览器 |
